sensor_id;sensor_type;location;lat;lon;timestamp;P1;durP1;ratioP1;P2;durP2;ratioP2
32108;SDS011;18624;50.042;8.436;2023-12-14T00:01:29;9.00;;;7.00;;
32108;SDS011;18624;50.042;8.436;2023-12-14T00:03:55;10.20;;;7.00;;
32108;SDS011;18624;50.042;8.436;2023-12-14T00:06:22;8.90;;;6.88;;
32108;SDS011;18624;50.042;8.436;2023-12-14T00:08:49;9.45;;;7.65;;
32108;SDS011;18624;50.042;8.436;2023-12-14T00:11:16;9.82;;;7.13;;
32108;SDS011;18624;50.042;8.436;2023-12-14T00:13:42;9.10;;;7.55;;
32108;SDS011;18624;50.042;8.436;2023-12-14T00:16:09;9.25;;;6.63;;
32108;SDS011;18624;50.042;8.436;2023-12-14T00:18:36;10.55;;;6.93;;
32108;SDS011;18624;50.042;8.436;2023-12-14T00:21:03;11.55;;;6.95;;
32108;SDS011;18624;50.042;8.436;2023-12-14T00:23:30;10.65;;;6.72;;
32108;SDS011;18624;50.042;8.436;2023-12-14T00:25:56;9.05;;;6.32;;
32108;SDS011;18624;50.042;8.436;2023-12-14T00:28:23;12.23;;;7.13;;
32108;SDS011;18624;50.042;8.436;2023-12-14T00:30:54;9.63;;;7.47;;
32108;SDS011;18624;50.042;8.436;2023-12-14T00:33:21;9.77;;;6.13;;
32108;SDS011;18624;50.042;8.436;2023-12-14T00:35:47;10.60;;;6.47;;
32108;SDS011;18624;50.042;8.436;2023-12-14T00:38:14;8.95;;;7.22;;
32108;SDS011;18624;50.042;8.436;2023-12-14T00:40:40;10.00;;;7.20;;
32108;SDS011;18624;50.042;8.436;2023-12-14T00:43:07;10.65;;;7.20;;
32108;SDS011;18624;50.042;8.436;2023-12-14T00:45:34;10.07;;;6.90;;
32108;SDS011;18624;50.042;8.436;2023-12-14T00:48:00;9.32;;;6.63;;
32108;SDS011;18624;50.042;8.436;2023-12-14T00:50:27;10.60;;;6.70;;
32108;SDS011;18624;50.042;8.436;2023-12-14T00:52:53;9.43;;;6.47;;
32108;SDS011;18624;50.042;8.436;2023-12-14T00:55:20;10.05;;;6.05;;
32108;SDS011;18624;50.042;8.436;2023-12-14T00:57:47;9.10;;;6.57;;
32108;SDS011;18624;50.042;8.436;2023-12-14T01:00:13;10.57;;;6.38;;
32108;SDS011;18624;50.042;8.436;2023-12-14T01:02:40;8.15;;;5.72;;
32108;SDS011;18624;50.042;8.436;2023-12-14T01:05:07;12.57;;;6.53;;
32108;SDS011;18624;50.042;8.436;2023-12-14T01:07:34;11.07;;;6.93;;
32108;SDS011;18624;50.042;8.436;2023-12-14T01:10:00;9.07;;;6.22;;
32108;SDS011;18624;50.042;8.436;2023-12-14T01:12:27;8.63;;;5.85;;
32108;SDS011;18624;50.042;8.436;2023-12-14T01:14:54;9.68;;;6.68;;
32108;SDS011;18624;50.042;8.436;2023-12-14T01:17:20;8.00;;;5.43;;
32108;SDS011;18624;50.042;8.436;2023-12-14T01:19:47;8.85;;;6.00;;
32108;SDS011;18624;50.042;8.436;2023-12-14T01:22:13;11.48;;;6.53;;
32108;SDS011;18624;50.042;8.436;2023-12-14T01:24:42;12.27;;;6.75;;
32108;SDS011;18624;50.042;8.436;2023-12-14T01:27:08;8.50;;;5.97;;
32108;SDS011;18624;50.042;8.436;2023-12-14T01:29:36;9.77;;;6.18;;
32108;SDS011;18624;50.042;8.436;2023-12-14T01:32:03;9.77;;;6.22;;
32108;SDS011;18624;50.042;8.436;2023-12-14T01:34:30;9.95;;;6.30;;
32108;SDS011;18624;50.042;8.436;2023-12-14T01:36:57;8.48;;;5.10;;
32108;SDS011;18624;50.042;8.436;2023-12-14T01:39:23;9.13;;;5.82;;
32108;SDS011;18624;50.042;8.436;2023-12-14T01:41:50;8.55;;;5.80;;
32108;SDS011;18624;50.042;8.436;2023-12-14T01:44:16;9.98;;;7.20;;
32108;SDS011;18624;50.042;8.436;2023-12-14T01:46:43;10.80;;;6.45;;
32108;SDS011;18624;50.042;8.436;2023-12-14T01:49:10;10.32;;;5.70;;
32108;SDS011;18624;50.042;8.436;2023-12-14T01:51:36;9.77;;;5.70;;
32108;SDS011;18624;50.042;8.436;2023-12-14T01:54:03;7.80;;;5.55;;
32108;SDS011;18624;50.042;8.436;2023-12-14T01:56:30;9.95;;;6.50;;
32108;SDS011;18624;50.042;8.436;2023-12-14T01:58:57;10.25;;;6.38;;
32108;SDS011;18624;50.042;8.436;2023-12-14T02:01:27;10.32;;;6.55;;
32108;SDS011;18624;50.042;8.436;2023-12-14T02:04:08;8.10;;;5.30;;
32108;SDS011;18624;50.042;8.436;2023-12-14T02:06:36;9.38;;;6.03;;
32108;SDS011;18624;50.042;8.436;2023-12-14T02:09:03;9.68;;;6.68;;
32108;SDS011;18624;50.042;8.436;2023-12-14T02:11:30;13.45;;;5.95;;
32108;SDS011;18624;50.042;8.436;2023-12-14T02:13:57;8.55;;;5.55;;
32108;SDS011;18624;50.042;8.436;2023-12-14T02:16:23;9.00;;;6.10;;
32108;SDS011;18624;50.042;8.436;2023-12-14T02:18:50;8.07;;;5.38;;
32108;SDS011;18624;50.042;8.436;2023-12-14T02:21:17;8.65;;;6.50;;
32108;SDS011;18624;50.042;8.436;2023-12-14T02:23:45;8.98;;;5.53;;
32108;SDS011;18624;50.042;8.436;2023-12-14T02:26:12;8.20;;;5.55;;
32108;SDS011;18624;50.042;8.436;2023-12-14T02:28:39;8.00;;;5.65;;
32108;SDS011;18624;50.042;8.436;2023-12-14T02:31:06;9.63;;;6.10;;
32108;SDS011;18624;50.042;8.436;2023-12-14T02:33:33;9.27;;;5.78;;
32108;SDS011;18624;50.042;8.436;2023-12-14T02:36:00;8.73;;;5.15;;
32108;SDS011;18624;50.042;8.436;2023-12-14T02:38:26;7.45;;;5.78;;
32108;SDS011;18624;50.042;8.436;2023-12-14T02:40:54;10.98;;;5.68;;
32108;SDS011;18624;50.042;8.436;2023-12-14T02:43:21;10.07;;;6.45;;
32108;SDS011;18624;50.042;8.436;2023-12-14T02:45:49;10.85;;;6.15;;
32108;SDS011;18624;50.042;8.436;2023-12-14T02:48:16;10.73;;;5.25;;
32108;SDS011;18624;50.042;8.436;2023-12-14T02:50:43;8.48;;;5.93;;
32108;SDS011;18624;50.042;8.436;2023-12-14T02:53:09;9.25;;;5.72;;
32108;SDS011;18624;50.042;8.436;2023-12-14T02:55:36;9.65;;;5.53;;
32108;SDS011;18624;50.042;8.436;2023-12-14T02:58:03;14.48;;;6.97;;
32108;SDS011;18624;50.042;8.436;2023-12-14T03:00:29;11.98;;;5.93;;
32108;SDS011;18624;50.042;8.436;2023-12-14T03:02:56;8.73;;;5.35;;
32108;SDS011;18624;50.042;8.436;2023-12-14T03:05:23;8.23;;;5.57;;
32108;SDS011;18624;50.042;8.436;2023-12-14T03:07:49;8.05;;;5.32;;
32108;SDS011;18624;50.042;8.436;2023-12-14T03:10:16;9.63;;;5.50;;
32108;SDS011;18624;50.042;8.436;2023-12-14T03:12:42;7.50;;;5.53;;
32108;SDS011;18624;50.042;8.436;2023-12-14T03:15:09;8.85;;;5.50;;
32108;SDS011;18624;50.042;8.436;2023-12-14T03:17:36;7.90;;;5.47;;
32108;SDS011;18624;50.042;8.436;2023-12-14T03:20:03;9.82;;;5.35;;
32108;SDS011;18624;50.042;8.436;2023-12-14T03:22:31;8.48;;;5.95;;
32108;SDS011;18624;50.042;8.436;2023-12-14T03:24:59;8.15;;;5.13;;
32108;SDS011;18624;50.042;8.436;2023-12-14T03:27:25;8.55;;;5.22;;
32108;SDS011;18624;50.042;8.436;2023-12-14T03:29:52;8.88;;;5.57;;
32108;SDS011;18624;50.042;8.436;2023-12-14T03:32:18;9.23;;;5.70;;
32108;SDS011;18624;50.042;8.436;2023-12-14T03:34:45;8.60;;;5.53;;
32108;SDS011;18624;50.042;8.436;2023-12-14T03:37:12;10.82;;;5.35;;
32108;SDS011;18624;50.042;8.436;2023-12-14T03:39:38;9.00;;;5.70;;
32108;SDS011;18624;50.042;8.436;2023-12-14T03:42:05;7.82;;;5.63;;
32108;SDS011;18624;50.042;8.436;2023-12-14T03:44:32;8.38;;;5.57;;
32108;SDS011;18624;50.042;8.436;2023-12-14T03:47:02;9.52;;;6.47;;
32108;SDS011;18624;50.042;8.436;2023-12-14T03:49:28;8.45;;;6.10;;
32108;SDS011;18624;50.042;8.436;2023-12-14T03:51:55;6.65;;;5.18;;
32108;SDS011;18624;50.042;8.436;2023-12-14T03:54:21;9.02;;;6.40;;
32108;SDS011;18624;50.042;8.436;2023-12-14T03:56:48;8.45;;;5.63;;
32108;SDS011;18624;50.042;8.436;2023-12-14T03:59:15;7.40;;;5.88;;
32108;SDS011;18624;50.042;8.436;2023-12-14T04:01:41;11.77;;;6.32;;
32108;SDS011;18624;50.042;8.436;2023-12-14T04:04:08;11.43;;;6.32;;
32108;SDS011;18624;50.042;8.436;2023-12-14T04:06:35;9.10;;;6.35;;
32108;SDS011;18624;50.042;8.436;2023-12-14T04:09:01;9.07;;;6.28;;
32108;SDS011;18624;50.042;8.436;2023-12-14T04:11:28;8.93;;;6.22;;
32108;SDS011;18624;50.042;8.436;2023-12-14T04:13:55;10.43;;;5.97;;
32108;SDS011;18624;50.042;8.436;2023-12-14T04:16:22;11.70;;;7.00;;
32108;SDS011;18624;50.042;8.436;2023-12-14T04:18:51;10.27;;;6.38;;
32108;SDS011;18624;50.042;8.436;2023-12-14T04:21:18;8.48;;;6.00;;
32108;SDS011;18624;50.042;8.436;2023-12-14T04:23:45;9.35;;;7.43;;
32108;SDS011;18624;50.042;8.436;2023-12-14T04:26:12;8.95;;;6.70;;
32108;SDS011;18624;50.042;8.436;2023-12-14T04:28:40;8.52;;;6.03;;
32108;SDS011;18624;50.042;8.436;2023-12-14T04:31:10;7.45;;;6.05;;
32108;SDS011;18624;50.042;8.436;2023-12-14T04:33:37;7.63;;;6.28;;
32108;SDS011;18624;50.042;8.436;2023-12-14T04:36:04;8.77;;;6.45;;
32108;SDS011;18624;50.042;8.436;2023-12-14T04:38:30;8.85;;;6.07;;
32108;SDS011;18624;50.042;8.436;2023-12-14T04:40:57;9.63;;;6.63;;
32108;SDS011;18624;50.042;8.436;2023-12-14T04:43:24;9.02;;;7.30;;
32108;SDS011;18624;50.042;8.436;2023-12-14T04:45:50;10.82;;;7.15;;
32108;SDS011;18624;50.042;8.436;2023-12-14T04:48:17;8.43;;;6.18;;
32108;SDS011;18624;50.042;8.436;2023-12-14T04:50:44;9.27;;;6.82;;
32108;SDS011;18624;50.042;8.436;2023-12-14T04:53:10;12.25;;;6.97;;
32108;SDS011;18624;50.042;8.436;2023-12-14T04:55:37;11.32;;;6.53;;
32108;SDS011;18624;50.042;8.436;2023-12-14T04:58:03;11.90;;;8.18;;
32108;SDS011;18624;50.042;8.436;2023-12-14T05:00:30;11.98;;;7.60;;
32108;SDS011;18624;50.042;8.436;2023-12-14T05:02:57;11.38;;;7.13;;
32108;SDS011;18624;50.042;8.436;2023-12-14T05:05:23;13.70;;;8.73;;
32108;SDS011;18624;50.042;8.436;2023-12-14T05:07:50;10.90;;;8.18;;
32108;SDS011;18624;50.042;8.436;2023-12-14T05:10:16;14.05;;;8.77;;
32108;SDS011;18624;50.042;8.436;2023-12-14T05:12:43;11.50;;;7.80;;
32108;SDS011;18624;50.042;8.436;2023-12-14T05:15:10;11.05;;;7.82;;
32108;SDS011;18624;50.042;8.436;2023-12-14T05:17:37;10.05;;;7.55;;
32108;SDS011;18624;50.042;8.436;2023-12-14T05:20:04;11.82;;;8.57;;
32108;SDS011;18624;50.042;8.436;2023-12-14T05:22:34;13.98;;;8.35;;
32108;SDS011;18624;50.042;8.436;2023-12-14T05:25:02;12.45;;;8.48;;
32108;SDS011;18624;50.042;8.436;2023-12-14T05:27:30;13.25;;;8.43;;
32108;SDS011;18624;50.042;8.436;2023-12-14T05:29:57;13.88;;;7.95;;
32108;SDS011;18624;50.042;8.436;2023-12-14T05:32:23;10.65;;;7.50;;
32108;SDS011;18624;50.042;8.436;2023-12-14T05:34:50;11.43;;;8.02;;
32108;SDS011;18624;50.042;8.436;2023-12-14T05:37:17;11.15;;;8.13;;
32108;SDS011;18624;50.042;8.436;2023-12-14T05:39:43;13.35;;;8.07;;
32108;SDS011;18624;50.042;8.436;2023-12-14T05:42:11;11.88;;;7.50;;
32108;SDS011;18624;50.042;8.436;2023-12-14T05:44:38;13.93;;;8.65;;
32108;SDS011;18624;50.042;8.436;2023-12-14T05:47:04;9.70;;;7.57;;
32108;SDS011;18624;50.042;8.436;2023-12-14T05:49:31;10.65;;;7.78;;
32108;SDS011;18624;50.042;8.436;2023-12-14T05:51:58;11.77;;;8.25;;
32108;SDS011;18624;50.042;8.436;2023-12-14T05:54:26;15.18;;;8.77;;
32108;SDS011;18624;50.042;8.436;2023-12-14T05:56:52;12.27;;;8.55;;
32108;SDS011;18624;50.042;8.436;2023-12-14T05:59:19;27.55;;;16.92;;
32108;SDS011;18624;50.042;8.436;2023-12-14T06:01:46;13.93;;;9.93;;
32108;SDS011;18624;50.042;8.436;2023-12-14T06:04:14;11.77;;;9.32;;
32108;SDS011;18624;50.042;8.436;2023-12-14T06:06:40;13.85;;;8.63;;
32108;SDS011;18624;50.042;8.436;2023-12-14T06:09:07;13.38;;;9.25;;
32108;SDS011;18624;50.042;8.436;2023-12-14T06:11:34;10.63;;;8.35;;
32108;SDS011;18624;50.042;8.436;2023-12-14T06:14:00;9.90;;;8.50;;
32108;SDS011;18624;50.042;8.436;2023-12-14T06:16:27;11.40;;;8.57;;
32108;SDS011;18624;50.042;8.436;2023-12-14T06:18:54;11.75;;;8.70;;
32108;SDS011;18624;50.042;8.436;2023-12-14T06:21:20;13.40;;;9.52;;
32108;SDS011;18624;50.042;8.436;2023-12-14T06:23:47;12.40;;;8.65;;
32108;SDS011;18624;50.042;8.436;2023-12-14T06:26:17;12.48;;;8.80;;
32108;SDS011;18624;50.042;8.436;2023-12-14T06:28:44;14.80;;;9.75;;
32108;SDS011;18624;50.042;8.436;2023-12-14T06:31:14;13.93;;;9.82;;
32108;SDS011;18624;50.042;8.436;2023-12-14T06:33:42;10.65;;;9.32;;
32108;SDS011;18624;50.042;8.436;2023-12-14T06:36:08;13.77;;;9.70;;
32108;SDS011;18624;50.042;8.436;2023-12-14T06:38:38;11.07;;;9.10;;
32108;SDS011;18624;50.042;8.436;2023-12-14T06:41:23;17.35;;;10.63;;
32108;SDS011;18624;50.042;8.436;2023-12-14T06:43:50;13.15;;;9.20;;
32108;SDS011;18624;50.042;8.436;2023-12-14T06:46:18;12.98;;;9.77;;
32108;SDS011;18624;50.042;8.436;2023-12-14T06:48:45;11.80;;;8.45;;
32108;SDS011;18624;50.042;8.436;2023-12-14T06:51:12;11.60;;;10.02;;
32108;SDS011;18624;50.042;8.436;2023-12-14T06:53:40;11.55;;;9.20;;
32108;SDS011;18624;50.042;8.436;2023-12-14T06:56:09;15.80;;;10.60;;
32108;SDS011;18624;50.042;8.436;2023-12-14T06:58:38;13.95;;;10.43;;
32108;SDS011;18624;50.042;8.436;2023-12-14T07:01:07;14.85;;;9.90;;
32108;SDS011;18624;50.042;8.436;2023-12-14T07:03:39;15.07;;;8.70;;
32108;SDS011;18624;50.042;8.436;2023-12-14T07:06:14;12.93;;;8.68;;
32108;SDS011;18624;50.042;8.436;2023-12-14T07:08:41;13.32;;;9.48;;
32108;SDS011;18624;50.042;8.436;2023-12-14T07:11:09;12.13;;;9.13;;
32108;SDS011;18624;50.042;8.436;2023-12-14T07:13:36;14.07;;;9.43;;
32108;SDS011;18624;50.042;8.436;2023-12-14T07:16:04;12.38;;;7.78;;
32108;SDS011;18624;50.042;8.436;2023-12-14T07:18:37;15.60;;;10.10;;
32108;SDS011;18624;50.042;8.436;2023-12-14T07:21:05;13.98;;;9.05;;
32108;SDS011;18624;50.042;8.436;2023-12-14T07:23:33;18.50;;;10.52;;
32108;SDS011;18624;50.042;8.436;2023-12-14T07:26:00;12.35;;;8.95;;
32108;SDS011;18624;50.042;8.436;2023-12-14T07:28:30;12.32;;;8.85;;
32108;SDS011;18624;50.042;8.436;2023-12-14T07:30:57;11.63;;;8.68;;
32108;SDS011;18624;50.042;8.436;2023-12-14T07:33:23;14.95;;;9.85;;
32108;SDS011;18624;50.042;8.436;2023-12-14T07:35:50;13.32;;;8.60;;
32108;SDS011;18624;50.042;8.436;2023-12-14T07:38:17;14.25;;;9.65;;
32108;SDS011;18624;50.042;8.436;2023-12-14T07:40:44;12.65;;;9.13;;
32108;SDS011;18624;50.042;8.436;2023-12-14T07:43:11;14.70;;;10.48;;
32108;SDS011;18624;50.042;8.436;2023-12-14T07:45:38;13.10;;;9.75;;
32108;SDS011;18624;50.042;8.436;2023-12-14T07:48:06;14.45;;;9.20;;
32108;SDS011;18624;50.042;8.436;2023-12-14T07:50:33;17.83;;;10.23;;
32108;SDS011;18624;50.042;8.436;2023-12-14T07:53:00;17.13;;;10.35;;
32108;SDS011;18624;50.042;8.436;2023-12-14T07:55:27;13.55;;;10.30;;
32108;SDS011;18624;50.042;8.436;2023-12-14T07:57:54;13.88;;;9.52;;
32108;SDS011;18624;50.042;8.436;2023-12-14T08:00:20;12.98;;;9.18;;
32108;SDS011;18624;50.042;8.436;2023-12-14T08:02:47;13.52;;;9.90;;
32108;SDS011;18624;50.042;8.436;2023-12-14T08:05:13;17.05;;;9.82;;
32108;SDS011;18624;50.042;8.436;2023-12-14T08:07:40;15.82;;;10.18;;
32108;SDS011;18624;50.042;8.436;2023-12-14T08:10:07;15.75;;;10.10;;
32108;SDS011;18624;50.042;8.436;2023-12-14T08:12:34;17.77;;;10.77;;
32108;SDS011;18624;50.042;8.436;2023-12-14T08:15:01;14.45;;;9.98;;
32108;SDS011;18624;50.042;8.436;2023-12-14T08:17:28;16.55;;;12.07;;
32108;SDS011;18624;50.042;8.436;2023-12-14T08:19:54;14.15;;;10.65;;
32108;SDS011;18624;50.042;8.436;2023-12-14T08:22:21;16.90;;;10.68;;
32108;SDS011;18624;50.042;8.436;2023-12-14T08:24:55;16.30;;;11.30;;
32108;SDS011;18624;50.042;8.436;2023-12-14T08:27:22;16.45;;;10.10;;
32108;SDS011;18624;50.042;8.436;2023-12-14T08:29:48;20.00;;;11.73;;
32108;SDS011;18624;50.042;8.436;2023-12-14T08:32:15;18.33;;;12.15;;
32108;SDS011;18624;50.042;8.436;2023-12-14T08:34:42;15.68;;;11.90;;
32108;SDS011;18624;50.042;8.436;2023-12-14T08:37:08;17.45;;;11.93;;
32108;SDS011;18624;50.042;8.436;2023-12-14T08:39:35;15.85;;;12.48;;
32108;SDS011;18624;50.042;8.436;2023-12-14T08:42:01;17.85;;;12.43;;
32108;SDS011;18624;50.042;8.436;2023-12-14T08:44:28;20.95;;;13.20;;
32108;SDS011;18624;50.042;8.436;2023-12-14T08:46:54;19.35;;;13.10;;
32108;SDS011;18624;50.042;8.436;2023-12-14T08:49:21;17.83;;;13.20;;
32108;SDS011;18624;50.042;8.436;2023-12-14T08:51:49;22.33;;;15.50;;
32108;SDS011;18624;50.042;8.436;2023-12-14T08:54:16;22.55;;;15.73;;
32108;SDS011;18624;50.042;8.436;2023-12-14T08:56:43;22.13;;;15.38;;
32108;SDS011;18624;50.042;8.436;2023-12-14T08:59:10;24.13;;;17.65;;
32108;SDS011;18624;50.042;8.436;2023-12-14T09:01:37;22.35;;;16.73;;
32108;SDS011;18624;50.042;8.436;2023-12-14T09:04:05;21.00;;;16.38;;
32108;SDS011;18624;50.042;8.436;2023-12-14T09:06:31;22.52;;;15.80;;
32108;SDS011;18624;50.042;8.436;2023-12-14T09:09:02;32.15;;;21.05;;
32108;SDS011;18624;50.042;8.436;2023-12-14T09:11:29;25.75;;;17.95;;
32108;SDS011;18624;50.042;8.436;2023-12-14T09:13:56;23.38;;;14.63;;
32108;SDS011;18624;50.042;8.436;2023-12-14T09:16:23;16.73;;;13.02;;
32108;SDS011;18624;50.042;8.436;2023-12-14T09:18:50;17.77;;;13.10;;
32108;SDS011;18624;50.042;8.436;2023-12-14T09:21:16;21.27;;;14.95;;
32108;SDS011;18624;50.042;8.436;2023-12-14T09:23:48;19.27;;;14.00;;
32108;SDS011;18624;50.042;8.436;2023-12-14T09:26:14;18.48;;;12.07;;
32108;SDS011;18624;50.042;8.436;2023-12-14T09:28:41;17.40;;;11.82;;
32108;SDS011;18624;50.042;8.436;2023-12-14T09:31:09;14.90;;;11.02;;
32108;SDS011;18624;50.042;8.436;2023-12-14T09:33:35;11.80;;;8.43;;
32108;SDS011;18624;50.042;8.436;2023-12-14T09:36:02;9.18;;;7.18;;
32108;SDS011;18624;50.042;8.436;2023-12-14T09:38:29;10.85;;;7.93;;
32108;SDS011;18624;50.042;8.436;2023-12-14T09:40:56;8.55;;;6.78;;
32108;SDS011;18624;50.042;8.436;2023-12-14T09:43:23;9.10;;;7.15;;
32108;SDS011;18624;50.042;8.436;2023-12-14T09:45:49;14.48;;;7.40;;
32108;SDS011;18624;50.042;8.436;2023-12-14T09:48:17;11.98;;;7.30;;
32108;SDS011;18624;50.042;8.436;2023-12-14T09:50:44;10.90;;;8.02;;
32108;SDS011;18624;50.042;8.436;2023-12-14T09:53:12;12.13;;;8.32;;
32108;SDS011;18624;50.042;8.436;2023-12-14T09:55:38;13.07;;;9.00;;
32108;SDS011;18624;50.042;8.436;2023-12-14T09:58:05;13.60;;;9.18;;
32108;SDS011;18624;50.042;8.436;2023-12-14T10:00:37;11.35;;;8.25;;
32108;SDS011;18624;50.042;8.436;2023-12-14T10:05:53;13.27;;;8.90;;
32108;SDS011;18624;50.042;8.436;2023-12-14T10:08:21;15.20;;;11.25;;
32108;SDS011;18624;50.042;8.436;2023-12-14T10:10:50;36.53;;;20.70;;
32108;SDS011;18624;50.042;8.436;2023-12-14T10:13:20;14.13;;;9.85;;
32108;SDS011;18624;50.042;8.436;2023-12-14T10:15:48;10.38;;;7.40;;
32108;SDS011;18624;50.042;8.436;2023-12-14T10:18:24;13.27;;;8.65;;
32108;SDS011;18624;50.042;8.436;2023-12-14T10:20:51;10.88;;;7.93;;
32108;SDS011;18624;50.042;8.436;2023-12-14T10:23:19;12.18;;;8.35;;
32108;SDS011;18624;50.042;8.436;2023-12-14T10:25:46;10.95;;;7.53;;
32108;SDS011;18624;50.042;8.436;2023-12-14T10:28:13;9.63;;;7.25;;
32108;SDS011;18624;50.042;8.436;2023-12-14T10:30:43;11.27;;;6.57;;
32108;SDS011;18624;50.042;8.436;2023-12-14T10:33:09;10.50;;;7.13;;
32108;SDS011;18624;50.042;8.436;2023-12-14T10:35:36;11.32;;;7.70;;
32108;SDS011;18624;50.042;8.436;2023-12-14T10:38:03;8.57;;;6.40;;
32108;SDS011;18624;50.042;8.436;2023-12-14T10:40:32;8.80;;;6.63;;
32108;SDS011;18624;50.042;8.436;2023-12-14T10:42:59;8.98;;;6.55;;
32108;SDS011;18624;50.042;8.436;2023-12-14T10:45:29;9.52;;;6.70;;
32108;SDS011;18624;50.042;8.436;2023-12-14T10:47:59;9.65;;;6.75;;
32108;SDS011;18624;50.042;8.436;2023-12-14T10:50:31;10.10;;;6.85;;
32108;SDS011;18624;50.042;8.436;2023-12-14T10:52:57;11.27;;;7.35;;
32108;SDS011;18624;50.042;8.436;2023-12-14T10:55:33;8.82;;;6.53;;
32108;SDS011;18624;50.042;8.436;2023-12-14T10:58:04;10.23;;;7.15;;
32108;SDS011;18624;50.042;8.436;2023-12-14T11:00:31;9.30;;;6.85;;
32108;SDS011;18624;50.042;8.436;2023-12-14T11:02:58;9.07;;;7.28;;
32108;SDS011;18624;50.042;8.436;2023-12-14T11:05:27;10.38;;;6.53;;
32108;SDS011;18624;50.042;8.436;2023-12-14T11:08:04;10.48;;;7.40;;
32108;SDS011;18624;50.042;8.436;2023-12-14T11:10:42;9.73;;;6.82;;
32108;SDS011;18624;50.042;8.436;2023-12-14T11:13:10;8.00;;;6.10;;
32108;SDS011;18624;50.042;8.436;2023-12-14T11:15:40;10.32;;;7.15;;
32108;SDS011;18624;50.042;8.436;2023-12-14T11:23:11;7.53;;;5.47;;
32108;SDS011;18624;50.042;8.436;2023-12-14T11:25:43;7.80;;;5.90;;
32108;SDS011;18624;50.042;8.436;2023-12-14T11:28:12;10.77;;;7.13;;
32108;SDS011;18624;50.042;8.436;2023-12-14T11:30:40;9.38;;;6.18;;
32108;SDS011;18624;50.042;8.436;2023-12-14T11:33:20;8.60;;;5.72;;
32108;SDS011;18624;50.042;8.436;2023-12-14T11:35:48;8.95;;;6.78;;
32108;SDS011;18624;50.042;8.436;2023-12-14T11:38:16;10.43;;;6.97;;
32108;SDS011;18624;50.042;8.436;2023-12-14T11:40:44;8.43;;;6.40;;
32108;SDS011;18624;50.042;8.436;2023-12-14T11:43:11;9.75;;;6.57;;
32108;SDS011;18624;50.042;8.436;2023-12-14T11:45:38;9.50;;;6.40;;
32108;SDS011;18624;50.042;8.436;2023-12-14T11:48:06;14.70;;;7.75;;
32108;SDS011;18624;50.042;8.436;2023-12-14T11:50:41;8.68;;;5.60;;
32108;SDS011;18624;50.042;8.436;2023-12-14T11:55:37;8.40;;;5.47;;
32108;SDS011;18624;50.042;8.436;2023-12-14T11:58:06;8.25;;;6.55;;
32108;SDS011;18624;50.042;8.436;2023-12-14T12:00:32;9.38;;;6.05;;
32108;SDS011;18624;50.042;8.436;2023-12-14T12:05:36;8.45;;;6.28;;
32108;SDS011;18624;50.042;8.436;2023-12-14T12:08:04;9.23;;;6.38;;
32108;SDS011;18624;50.042;8.436;2023-12-14T12:10:32;9.63;;;6.78;;
32108;SDS011;18624;50.042;8.436;2023-12-14T12:13:03;10.65;;;6.57;;
32108;SDS011;18624;50.042;8.436;2023-12-14T12:15:34;10.07;;;6.38;;
32108;SDS011;18624;50.042;8.436;2023-12-14T12:18:05;12.30;;;7.00;;
32108;SDS011;18624;50.042;8.436;2023-12-14T12:20:33;8.40;;;6.22;;
32108;SDS011;18624;50.042;8.436;2023-12-14T12:23:01;10.75;;;7.07;;
32108;SDS011;18624;50.042;8.436;2023-12-14T12:25:29;11.40;;;6.57;;
32108;SDS011;18624;50.042;8.436;2023-12-14T12:27:57;8.85;;;5.93;;
32108;SDS011;18624;50.042;8.436;2023-12-14T12:30:25;9.50;;;6.30;;
32108;SDS011;18624;50.042;8.436;2023-12-14T12:32:52;11.02;;;6.55;;
32108;SDS011;18624;50.042;8.436;2023-12-14T12:35:19;8.57;;;6.35;;
32108;SDS011;18624;50.042;8.436;2023-12-14T12:37:46;9.80;;;6.03;;
32108;SDS011;18624;50.042;8.436;2023-12-14T12:40:13;9.40;;;6.47;;
32108;SDS011;18624;50.042;8.436;2023-12-14T12:42:42;8.63;;;6.60;;
32108;SDS011;18624;50.042;8.436;2023-12-14T12:45:09;8.68;;;6.75;;
32108;SDS011;18624;50.042;8.436;2023-12-14T12:47:36;9.70;;;7.03;;
32108;SDS011;18624;50.042;8.436;2023-12-14T12:50:04;11.50;;;7.00;;
32108;SDS011;18624;50.042;8.436;2023-12-14T12:52:32;9.68;;;7.43;;
32108;SDS011;18624;50.042;8.436;2023-12-14T12:54:58;10.65;;;7.32;;
32108;SDS011;18624;50.042;8.436;2023-12-14T12:57:26;7.72;;;6.70;;
32108;SDS011;18624;50.042;8.436;2023-12-14T12:59:52;10.32;;;6.75;;
32108;SDS011;18624;50.042;8.436;2023-12-14T13:02:19;11.10;;;7.63;;
32108;SDS011;18624;50.042;8.436;2023-12-14T13:04:46;8.50;;;5.60;;
32108;SDS011;18624;50.042;8.436;2023-12-14T13:07:13;8.65;;;7.45;;
32108;SDS011;18624;50.042;8.436;2023-12-14T13:09:39;10.25;;;7.57;;
32108;SDS011;18624;50.042;8.436;2023-12-14T13:12:06;8.20;;;6.38;;
32108;SDS011;18624;50.042;8.436;2023-12-14T13:14:33;11.60;;;8.35;;
32108;SDS011;18624;50.042;8.436;2023-12-14T13:16:59;9.80;;;6.80;;
32108;SDS011;18624;50.042;8.436;2023-12-14T13:19:26;10.57;;;7.63;;
32108;SDS011;18624;50.042;8.436;2023-12-14T13:21:53;13.07;;;8.48;;
32108;SDS011;18624;50.042;8.436;2023-12-14T13:24:20;10.98;;;7.82;;
32108;SDS011;18624;50.042;8.436;2023-12-14T13:26:47;12.52;;;8.88;;
32108;SDS011;18624;50.042;8.436;2023-12-14T13:29:13;10.40;;;7.95;;
32108;SDS011;18624;50.042;8.436;2023-12-14T13:31:40;11.30;;;8.88;;
32108;SDS011;18624;50.042;8.436;2023-12-14T13:34:06;11.98;;;8.60;;
32108;SDS011;18624;50.042;8.436;2023-12-14T13:36:33;13.98;;;10.10;;
32108;SDS011;18624;50.042;8.436;2023-12-14T13:39:00;18.10;;;10.98;;
32108;SDS011;18624;50.042;8.436;2023-12-14T13:41:28;15.93;;;10.55;;
32108;SDS011;18624;50.042;8.436;2023-12-14T13:44:10;15.18;;;10.82;;
32108;SDS011;18624;50.042;8.436;2023-12-14T13:46:37;14.10;;;10.60;;
32108;SDS011;18624;50.042;8.436;2023-12-14T13:49:03;12.45;;;9.38;;
32108;SDS011;18624;50.042;8.436;2023-12-14T13:51:30;11.98;;;8.23;;
32108;SDS011;18624;50.042;8.436;2023-12-14T13:53:56;18.38;;;9.25;;
32108;SDS011;18624;50.042;8.436;2023-12-14T13:56:23;13.27;;;9.27;;
32108;SDS011;18624;50.042;8.436;2023-12-14T13:58:50;12.23;;;9.07;;
32108;SDS011;18624;50.042;8.436;2023-12-14T14:01:17;14.27;;;9.38;;
32108;SDS011;18624;50.042;8.436;2023-12-14T14:03:44;16.08;;;11.18;;
32108;SDS011;18624;50.042;8.436;2023-12-14T14:06:13;15.00;;;10.05;;
32108;SDS011;18624;50.042;8.436;2023-12-14T14:08:43;12.40;;;9.20;;
32108;SDS011;18624;50.042;8.436;2023-12-14T14:11:09;13.18;;;8.05;;
32108;SDS011;18624;50.042;8.436;2023-12-14T14:13:36;13.35;;;8.90;;
32108;SDS011;18624;50.042;8.436;2023-12-14T14:16:03;13.30;;;9.43;;
32108;SDS011;18624;50.042;8.436;2023-12-14T14:18:31;13.02;;;9.48;;
32108;SDS011;18624;50.042;8.436;2023-12-14T14:20:58;12.30;;;9.27;;
32108;SDS011;18624;50.042;8.436;2023-12-14T14:23:25;11.45;;;9.00;;
32108;SDS011;18624;50.042;8.436;2023-12-14T14:25:51;13.65;;;9.95;;
32108;SDS011;18624;50.042;8.436;2023-12-14T14:28:21;13.52;;;9.93;;
32108;SDS011;18624;50.042;8.436;2023-12-14T14:30:51;12.35;;;8.75;;
32108;SDS011;18624;50.042;8.436;2023-12-14T14:33:18;14.25;;;9.80;;
32108;SDS011;18624;50.042;8.436;2023-12-14T14:35:45;11.15;;;8.48;;
32108;SDS011;18624;50.042;8.436;2023-12-14T14:38:13;12.20;;;9.18;;
32108;SDS011;18624;50.042;8.436;2023-12-14T14:40:40;10.30;;;8.38;;
32108;SDS011;18624;50.042;8.436;2023-12-14T14:43:09;12.63;;;8.93;;
32108;SDS011;18624;50.042;8.436;2023-12-14T14:45:35;11.65;;;8.10;;
32108;SDS011;18624;50.042;8.436;2023-12-14T14:48:04;11.82;;;9.45;;
32108;SDS011;18624;50.042;8.436;2023-12-14T14:50:35;14.77;;;9.15;;
32108;SDS011;18624;50.042;8.436;2023-12-14T14:53:02;10.73;;;8.07;;